Time;durP1;ratioP1;P1;durP2;ratioP2;P2;SDS_P1;SDS_P2;PMS_P1;PMS_P2;Temp;Humidity;BMP_temperature;BMP_pressure;BME280_temperature;BME280_humidity;BME280_pressure;Samples;Min_cycle;Max_cycle;Signal;HPM_P1;HPM_P2
2024/04/21 00:01:55;;;;;;;20.15;4.35;;;;;;;7.16;72.55;102089.69;5413475;26;20423;-58
2024/04/21 00:04:24;;;;;;;21.73;5.95;;;;;;;7.10;72.92;102079.75;5446640;26;20438;-59
2024/04/21 00:06:51;;;;;;;19.83;5.03;;;;;;;7.03;73.65;102073.66;5415680;26;19995;-56
2024/04/21 00:09:19;;;;;;;24.75;4.88;;;;;;;7.16;73.37;102076.00;5446627;26;19998;-58
2024/04/21 00:11:46;;;;;;;15.85;4.53;;;;;;;7.01;73.41;102070.38;5441245;26;20017;-60
2024/04/21 00:14:14;;;;;;;18.67;4.57;;;;;;;7.01;73.87;102067.63;5388439;26;20021;-57
2024/04/21 00:16:41;;;;;;;25.80;5.18;;;;;;;6.97;73.82;102070.06;5441799;26;20003;-60
2024/04/21 00:19:08;;;;;;;17.20;4.13;;;;;;;6.86;74.37;102068.25;5444737;26;20013;-59
2024/04/21 00:21:36;;;;;;;17.45;4.15;;;;;;;6.91;74.86;102062.84;5432803;26;20018;-63
2024/04/21 00:24:03;;;;;;;17.90;4.35;;;;;;;6.75;75.10;102066.47;5381028;26;19995;-59
2024/04/21 00:26:31;;;;;;;22.08;4.70;;;;;;;6.81;74.86;102062.72;5412914;26;20009;-60
2024/04/21 00:29:02;;;;;;;18.65;4.80;;;;;;;6.76;75.25;102062.69;5446362;26;20013;-58
2024/04/21 00:31:30;;;;;;;20.17;5.03;;;;;;;6.90;74.93;102061.19;5444488;26;20472;-59
2024/04/21 00:33:57;;;;;;;21.58;4.97;;;;;;;6.65;75.45;102061.72;5444020;26;20005;-63
2024/04/21 00:36:25;;;;;;;19.27;4.07;;;;;;;6.74;75.77;102057.47;5443531;26;20743;-58
2024/04/21 00:38:52;;;;;;;19.60;5.15;;;;;;;6.78;75.29;102055.84;5437460;26;20018;-59
2024/04/21 00:41:20;;;;;;;23.42;5.10;;;;;;;6.90;75.44;102049.41;5409003;26;19996;-59
2024/04/21 00:43:47;;;;;;;16.17;4.82;;;;;;;6.51;75.97;102054.97;5425765;26;20044;-58
2024/04/21 00:46:14;;;;;;;20.67;5.18;;;;;;;6.21;77.62;102061.91;5384083;26;20553;-58
2024/04/21 00:48:42;;;;;;;13.45;3.70;;;;;;;6.08;78.89;102060.38;5414041;26;20550;-58
2024/04/21 00:51:10;;;;;;;16.17;4.60;;;;;;;6.16;78.98;102051.75;5444081;26;19994;-59
2024/04/21 00:53:37;;;;;;;25.05;4.95;;;;;;;6.08;79.08;102045.88;5444912;26;20033;-58
2024/04/21 00:56:06;;;;;;;15.32;4.82;;;;;;;6.14;78.69;102044.84;5444316;26;20037;-60
2024/04/21 00:58:33;;;;;;;20.73;5.35;;;;;;;6.09;79.03;102042.03;5417192;26;20003;-58
2024/04/21 01:01:01;;;;;;;14.50;4.22;;;;;;;5.92;79.73;102024.84;5445459;26;19995;-59
2024/04/21 01:03:29;;;;;;;23.83;5.03;;;;;;;5.96;79.58;102034.22;5407753;26;19995;-53
2024/04/21 01:05:56;;;;;;;14.40;4.35;;;;;;;6.16;78.94;102024.38;5378464;26;20000;-58
2024/04/21 01:08:24;;;;;;;17.60;4.72;;;;;;;6.20;78.89;102025.53;5394795;26;20118;-59
2024/04/21 01:10:51;;;;;;;22.45;4.75;;;;;;;6.37;78.11;102007.16;5413178;26;20464;-59
2024/04/21 01:13:18;;;;;;;17.42;4.15;;;;;;;6.27;78.17;102009.78;5421640;26;20002;-64
2024/04/21 01:15:52;;;;;;;22.92;4.60;;;;;;;6.17;78.23;102015.09;5432235;26;19995;-61
2024/04/21 01:18:19;;;;;;;16.08;4.25;;;;;;;6.21;78.62;102016.25;5445748;26;20009;-60
2024/04/21 01:20:47;;;;;;;14.93;4.65;;;;;;;6.00;78.42;102019.78;5443850;26;20013;-59
2024/04/21 01:23:18;;;;;;;20.05;4.68;;;;;;;6.22;78.87;102008.88;5413244;26;20013;-59
2024/04/21 01:25:46;;;;;;;18.25;4.75;;;;;;;6.34;77.86;102004.09;5412956;26;19999;-60
2024/04/21 01:28:14;;;;;;;19.33;4.72;;;;;;;5.93;78.86;102010.91;5413090;26;20006;-59
2024/04/21 01:30:41;;;;;;;21.42;5.63;;;;;;;6.00;78.80;102008.84;5435089;26;20320;-58
2024/04/21 01:33:09;;;;;;;12.45;4.03;;;;;;;5.86;78.93;102010.25;5408536;26;19995;-57
2024/04/21 01:35:36;;;;;;;21.40;4.55;;;;;;;5.80;79.41;102005.78;5409269;26;20002;-57
2024/04/21 01:38:04;;;;;;;22.55;4.13;;;;;;;5.76;79.11;102007.34;5402481;26;20009;-59
2024/04/21 01:40:31;;;;;;;19.40;4.50;;;;;;;5.80;79.49;102005.78;5433247;26;19999;-61
2024/04/21 01:42:58;;;;;;;19.70;4.28;;;;;;;5.71;79.99;102005.38;5445061;26;20003;-61
2024/04/21 01:45:26;;;;;;;21.02;4.50;;;;;;;5.80;78.68;102004.94;5407313;26;20025;-61
2024/04/21 01:47:53;;;;;;;20.42;4.78;;;;;;;5.96;78.12;101999.50;5409480;26;20000;-60
2024/04/21 01:50:21;;;;;;;17.33;4.25;;;;;;;5.64;79.54;101996.53;5402405;26;20003;-58
2024/04/21 01:52:48;;;;;;;17.80;4.03;;;;;;;5.71;79.65;101997.19;5425189;26;19999;-58
2024/04/21 01:55:15;;;;;;;19.17;4.82;;;;;;;5.76;79.79;101990.94;5407270;26;20002;-59
2024/04/21 01:57:43;;;;;;;18.17;4.47;;;;;;;5.91;79.29;101993.94;5435483;26;19998;-58
2024/04/21 02:00:10;;;;;;;15.30;4.40;;;;;;;6.11;77.85;101993.41;5480569;26;20472;-59
2024/04/21 02:02:40;;;;;;;19.77;3.97;;;;;;;5.79;78.62;101986.91;5442572;26;20037;-59
2024/04/21 02:05:08;;;;;;;18.85;4.72;;;;;;;5.74;78.98;101988.47;5402092;26;20007;-60
2024/04/21 02:07:36;;;;;;;20.55;4.10;;;;;;;6.08;78.39;101983.81;5405814;26;20004;-57
2024/04/21 02:10:04;;;;;;;15.75;3.90;;;;;;;5.78;79.11;101980.59;5377360;26;20492;-59
2024/04/21 02:12:32;;;;;;;17.27;4.35;;;;;;;5.65;79.10;101972.72;5407095;26;20018;-59
2024/04/21 02:14:59;;;;;;;15.40;3.65;;;;;;;5.73;79.31;101972.31;5378466;26;19999;-58
2024/04/21 02:17:26;;;;;;;17.75;3.53;;;;;;;5.63;78.46;101974.91;5428195;26;20013;-58
2024/04/21 02:19:54;;;;;;;14.40;3.78;;;;;;;5.47;79.08;101976.56;5406517;26;20041;-57
2024/04/21 02:22:21;;;;;;;13.15;3.83;;;;;;;5.28;80.26;101966.94;5417189;26;20069;-58
2024/04/21 02:24:49;;;;;;;15.68;3.58;;;;;;;5.26;80.23;101974.59;5440383;26;19995;-60
2024/04/21 02:27:16;;;;;;;17.55;3.97;;;;;;;5.41;80.94;101968.53;5408549;26;20007;-58
2024/04/21 02:29:45;;;;;;;12.70;3.53;;;;;;;5.32;80.63;101968.13;5432512;26;20092;-60
2024/04/21 02:32:12;;;;;;;17.77;3.53;;;;;;;5.40;81.06;101969.63;5444387;26;20003;-59
2024/04/21 02:34:40;;;;;;;21.40;4.07;;;;;;;5.50;80.14;101967.03;5406987;26;20014;-59
2024/04/21 02:37:08;;;;;;;13.60;3.47;;;;;;;5.59;78.84;101976.47;5437452;26;20009;-57
2024/04/21 02:39:35;;;;;;;14.60;3.60;;;;;;;5.42;79.04;101979.19;5413218;26;20496;-59
2024/04/21 02:42:03;;;;;;;14.20;3.90;;;;;;;5.57;78.82;101975.91;5412828;26;20003;-58
2024/04/21 02:44:31;;;;;;;17.20;3.10;;;;;;;5.65;78.36;101978.19;5411995;26;19998;-58
2024/04/21 02:46:58;;;;;;;13.15;3.20;;;;;;;5.63;78.28;101983.09;5412040;26;20838;-58
2024/04/21 02:49:25;;;;;;;10.77;3.35;;;;;;;5.35;79.26;101972.28;5382668;26;19995;-57
2024/04/21 02:51:53;;;;;;;23.48;3.70;;;;;;;5.31;79.47;101977.41;5443568;26;20001;-58
2024/04/21 02:54:25;;;;;;;15.20;3.20;;;;;;;5.21;80.85;101969.00;5444038;26;20026;-60
2024/04/21 02:56:53;;;;;;;17.65;4.28;;;;;;;5.43;79.40;101963.66;5442802;26;20359;-61
2024/04/21 02:59:20;;;;;;;20.85;3.95;;;;;;;5.31;80.07;101971.09;5412331;26;19994;-58
2024/04/21 03:01:47;;;;;;;11.80;3.40;;;;;;;5.26;80.16;101971.03;5405590;26;20011;-59
2024/04/21 03:04:17;;;;;;;13.65;2.97;;;;;;;5.18;80.39;101974.97;5436896;26;19999;-59
2024/04/21 03:06:46;;;;;;;17.88;3.65;;;;;;;5.06;80.78;101960.56;5443350;26;20078;-59
2024/04/21 03:09:14;;;;;;;16.58;3.80;;;;;;;4.91;81.31;101968.50;5443636;26;19998;-56
2024/04/21 03:11:41;;;;;;;14.60;3.42;;;;;;;5.02;81.36;101961.31;5381627;26;19995;-58
2024/04/21 03:14:08;;;;;;;15.80;3.63;;;;;;;5.15;81.24;101959.09;5411226;26;20026;-58
2024/04/21 03:16:36;;;;;;;17.33;3.30;;;;;;;5.40;80.16;101948.59;5444072;26;20003;-59
2024/04/21 03:19:03;;;;;;;18.92;3.55;;;;;;;5.52;79.12;101952.06;5442503;26;19995;-58
2024/04/21 03:21:30;;;;;;;18.52;3.92;;;;;;;5.77;79.07;101959.78;5442674;26;20474;-60
2024/04/21 03:23:58;;;;;;;19.60;3.95;;;;;;;5.50;78.90;101956.94;5445262;26;19999;-58
2024/04/21 03:26:25;;;;;;;20.30;3.95;;;;;;;5.49;79.67;101952.53;5446662;26;20667;-57
2024/04/21 03:28:52;;;;;;;16.58;3.28;;;;;;;5.36;79.66;101952.91;5446024;26;19999;-58
2024/04/21 03:31:20;;;;;;;18.20;4.47;;;;;;;5.37;80.20;101953.72;5444066;26;20565;-58
2024/04/21 03:33:47;;;;;;;9.75;3.28;;;;;;;5.26;80.75;101954.63;5422422;26;20006;-60
2024/04/21 03:36:15;;;;;;;13.55;3.60;;;;;;;5.34;80.76;101949.56;5410857;26;19996;-60
2024/04/21 03:38:42;;;;;;;20.65;3.95;;;;;;;5.46;80.40;101958.50;5395701;26;20007;-59
2024/04/21 03:41:10;;;;;;;17.40;3.47;;;;;;;5.31;79.96;101962.91;5443877;26;20005;-59
2024/04/21 03:43:38;;;;;;;16.48;3.35;;;;;;;5.27;80.86;101959.84;5374685;26;20010;-58
2024/04/21 03:46:06;;;;;;;11.73;3.03;;;;;;;5.47;80.09;101948.41;5445916;26;19994;-59
2024/04/21 03:48:33;;;;;;;12.43;3.45;;;;;;;5.25;80.18;101963.88;5445154;26;19998;-58
2024/04/21 03:51:01;;;;;;;19.88;4.00;;;;;;;5.13;81.39;101952.22;5446415;26;20002;-59
2024/04/21 03:53:28;;;;;;;14.38;3.08;;;;;;;5.06;81.39;101948.81;5383980;26;20549;-58
2024/04/21 03:55:55;;;;;;;17.75;3.50;;;;;;;5.17;81.27;101943.28;5419024;26;20003;-59
2024/04/21 03:58:23;;;;;;;18.48;3.53;;;;;;;5.20;80.72;101947.41;5378902;26;20131;-56
2024/04/21 04:00:51;;;;;;;18.67;3.38;;;;;;;5.03;81.36;101941.13;5426895;26;20002;-59
2024/04/21 04:03:18;;;;;;;12.32;3.08;;;;;;;5.14;80.87;101937.50;5378429;26;19996;-58
2024/04/21 04:05:46;;;;;;;17.00;3.75;;;;;;;5.11;81.22;101943.47;5424385;26;19995;-57
2024/04/21 04:08:13;;;;;;;14.13;3.60;;;;;;;5.30;81.14;101933.94;5446384;26;19999;-58
2024/04/21 04:10:43;;;;;;;19.30;3.20;;;;;;;5.02;81.80;101928.56;5425424;26;20835;-56
2024/04/21 04:13:10;;;;;;;13.80;3.25;;;;;;;5.13;81.82;101928.47;5450966;26;20001;-59
2024/04/21 04:15:39;;;;;;;20.13;3.63;;;;;;;5.19;80.97;101932.97;5481389;26;19994;-60
2024/04/21 04:18:07;;;;;;;19.23;4.27;;;;;;;5.12;80.81;101921.38;5449340;26;20650;-60
2024/04/21 04:20:35;;;;;;;15.63;3.65;;;;;;;5.07;81.54;101929.47;5449796;26;19999;-58
2024/04/21 04:23:04;;;;;;;14.27;3.20;;;;;;;5.17;81.39;101926.06;5481607;26;19998;-59
2024/04/21 04:25:32;;;;;;;19.02;3.55;;;;;;;5.10;81.00;101923.50;5456360;26;20486;-57
2024/04/21 04:27:59;;;;;;;18.95;4.32;;;;;;;5.13;81.30;101928.47;5443475;26;19995;-60
2024/04/21 04:30:27;;;;;;;16.00;3.40;;;;;;;5.06;80.99;101929.69;5445879;26;20462;-59
2024/04/21 04:32:55;;;;;;;22.80;3.85;;;;;;;5.11;81.82;101927.88;5445320;26;19999;-59
2024/04/21 04:35:22;;;;;;;12.73;2.88;;;;;;;5.20;80.44;101936.50;5445799;26;19999;-59
2024/04/21 04:37:50;;;;;;;17.80;3.53;;;;;;;5.02;80.74;101925.81;5446014;26;20002;-58
2024/04/21 04:40:21;;;;;;;14.65;3.28;;;;;;;4.99;81.79;101926.31;5445987;26;19998;-58
2024/04/21 04:42:49;;;;;;;15.30;3.28;;;;;;;5.04;82.16;101919.03;5413867;26;19995;-57
2024/04/21 04:45:17;;;;;;;14.93;3.20;;;;;;;5.14;81.58;101923.84;5445385;26;20018;-58
2024/04/21 04:47:44;;;;;;;17.13;3.63;;;;;;;5.07;81.91;101921.28;5413901;26;20005;-57
2024/04/21 04:50:12;;;;;;;17.75;3.63;;;;;;;5.30;80.84;101921.09;5445477;26;19994;-56
2024/04/21 04:52:40;;;;;;;18.73;3.28;;;;;;;4.93;81.63;101925.41;5439387;26;20022;-56
2024/04/21 04:55:07;;;;;;;17.10;3.45;;;;;;;5.15;81.59;101928.22;5408141;26;20003;-58
2024/04/21 04:57:35;;;;;;;12.95;2.95;;;;;;;5.48;80.37;101917.28;5435335;26;20482;-59
2024/04/21 05:00:02;;;;;;;19.52;3.80;;;;;;;5.60;79.73;101915.25;5444389;26;19999;-58
2024/04/21 05:02:30;;;;;;;15.57;3.10;;;;;;;5.78;78.44;101914.97;5414079;26;19999;-58
2024/04/21 05:04:57;;;;;;;18.77;3.33;;;;;;;5.55;79.25;101915.19;5433701;26;20010;-57
2024/04/21 05:07:25;;;;;;;23.80;3.22;;;;;;;5.44;78.74;101921.59;5412899;26;20009;-57
2024/04/21 05:09:52;;;;;;;14.13;3.40;;;;;;;5.42;80.24;101919.09;5476767;26;20004;-58
2024/04/21 05:12:20;;;;;;;15.90;3.20;;;;;;;5.64;79.01;101927.34;5481072;26;20009;-58
2024/04/21 05:14:47;;;;;;;15.25;2.97;;;;;;;5.43;80.01;101915.31;5413493;26;20007;-57
2024/04/21 05:17:14;;;;;;;20.15;2.95;;;;;;;5.27;80.28;101915.31;5437369;26;20466;-58
2024/04/21 05:19:42;;;;;;;18.15;3.80;;;;;;;5.36;80.65;101922.00;5435947;26;19999;-59
2024/04/21 05:22:09;;;;;;;27.55;4.30;;;;;;;5.08;81.79;101925.66;5439896;26;20008;-59
2024/04/21 05:24:37;;;;;;;18.25;2.95;;;;;;;5.24;81.79;101926.72;5386872;26;20009;-58
2024/04/21 05:27:04;;;;;;;14.60;3.10;;;;;;;5.38;80.71;101928.06;5410906;26;19995;-57
2024/04/21 05:29:32;;;;;;;15.40;3.33;;;;;;;5.43;79.96;101926.22;5407580;26;20540;-59
2024/04/21 05:31:59;;;;;;;21.38;3.22;;;;;;;5.47;79.91;101926.56;5409318;26;19999;-59
2024/04/21 05:34:26;;;;;;;18.90;3.08;;;;;;;5.34;80.26;101932.34;5422820;26;20003;-58
2024/04/21 05:36:54;;;;;;;16.67;2.85;;;;;;;5.57;79.80;101929.44;5443836;26;20013;-57
2024/04/21 05:39:23;;;;;;;13.60;3.08;;;;;;;5.67;80.42;101926.84;5424591;26;19998;-58
2024/04/21 05:41:51;;;;;;;17.47;3.53;;;;;;;5.91;79.19;101925.56;5449090;26;20013;-59
2024/04/21 05:44:19;;;;;;;13.95;3.45;;;;;;;5.86;78.21;101925.50;5413669;26;20821;-58
2024/04/21 05:46:46;;;;;;;17.70;3.75;;;;;;;5.72;79.00;101929.66;5444691;26;20551;-58
2024/04/21 05:49:14;;;;;;;16.40;3.00;;;;;;;5.75;79.33;101931.91;5398481;26;20004;-55
2024/04/21 05:51:41;;;;;;;12.30;2.63;;;;;;;5.96;79.07;101930.28;5439155;26;20002;-56
2024/04/21 05:54:08;;;;;;;10.75;2.47;;;;;;;5.53;79.10;101936.47;5443384;26;20008;-59
2024/04/21 05:56:36;;;;;;;13.50;3.05;;;;;;;5.57;79.86;101935.75;5444981;26;19999;-55
2024/04/21 05:59:03;;;;;;;10.98;2.90;;;;;;;5.55;80.58;101931.59;5411929;26;20002;-60
2024/04/21 06:01:30;;;;;;;14.70;3.13;;;;;;;5.66;80.07;101936.13;5443773;26;20005;-60
2024/04/21 06:03:58;;;;;;;19.60;3.47;;;;;;;5.68;79.84;101932.06;5444902;26;20005;-58
2024/04/21 06:06:25;;;;;;;19.88;3.95;;;;;;;6.01;79.03;101927.63;5455932;26;19998;-57
2024/04/21 06:08:53;;;;;;;12.82;3.40;;;;;;;5.70;78.18;101935.38;5455927;26;20003;-58
2024/04/21 06:11:20;;;;;;;17.10;3.25;;;;;;;5.83;79.61;101933.38;5443572;26;19999;-56
2024/04/21 06:13:48;;;;;;;14.35;3.45;;;;;;;5.98;79.11;101939.88;5412942;26;19995;-57
2024/04/21 06:16:15;;;;;;;15.93;3.47;;;;;;;5.68;79.67;101929.31;5412188;26;20034;-58
2024/04/21 06:18:42;;;;;;;20.65;3.78;;;;;;;5.99;78.33;101921.56;5381667;26;19998;-58
2024/04/21 06:21:15;;;;;;;12.07;3.22;;;;;;;5.85;78.29;101923.03;5442297;26;19999;-60
2024/04/21 06:23:42;;;;;;;13.25;2.50;;;;;;;5.92;77.21;101931.88;5407172;26;19999;-58
2024/04/21 06:26:10;;;;;;;13.95;2.30;;;;;;;5.89;77.67;101938.69;5432667;26;20018;-57
2024/04/21 06:28:37;;;;;;;14.63;2.90;;;;;;;5.78;78.96;101947.78;5428545;26;20804;-57
2024/04/21 06:31:05;;;;;;;14.70;2.83;;;;;;;5.57;79.54;101945.84;5413165;26;20009;-59
2024/04/21 06:33:32;;;;;;;15.02;2.75;;;;;;;5.64;79.83;101944.59;5399054;26;20009;-61
2024/04/21 06:36:00;;;;;;;12.77;2.85;;;;;;;5.76;79.38;101941.75;5411717;26;19998;-59
2024/04/21 06:38:30;;;;;;;12.52;2.65;;;;;;;5.62;78.76;101945.91;5422098;26;20008;-57
2024/04/21 06:40:57;;;;;;;;;;;;;;;5.55;79.81;101946.09;5445260;26;20137;-56
2024/04/21 06:43:24;;;;;;;17.20;3.03;;;;;;;5.81;79.21;101952.75;5428323;26;19925;-60
2024/04/21 06:45:52;;;;;;;11.20;2.42;;;;;;;5.43;80.28;101941.78;5412205;26;20022;-59
2024/04/21 06:48:21;;;;;;;18.38;3.35;;;;;;;5.41;80.18;101952.97;5419994;26;20013;-60
2024/04/21 06:50:49;;;;;;;14.57;3.00;;;;;;;5.75;79.38;101951.84;5412854;26;19998;-56
2024/04/21 06:53:17;;;;;;;13.88;2.78;;;;;;;5.72;79.35;101962.44;5404356;26;20003;-62
2024/04/21 06:55:45;;;;;;;13.02;2.42;;;;;;;6.04;77.88;101959.94;5438728;26;19994;-61
2024/04/21 06:58:12;;;;;;;13.52;3.17;;;;;;;5.66;79.66;101958.84;5450112;26;19998;-62
2024/04/21 07:00:40;;;;;;;15.40;3.20;;;;;;;5.61;80.57;101950.53;5399591;26;20004;-60
2024/04/21 07:03:08;;;;;;;12.68;3.03;;;;;;;5.75;79.95;101949.09;5424040;26;20438;-59
2024/04/21 07:05:36;;;;;;;18.85;2.97;;;;;;;6.07;79.41;101943.84;5446699;26;19994;-59
2024/04/21 07:08:04;;;;;;;16.73;2.80;;;;;;;6.44;77.66;101938.53;5446482;26;20021;-58
2024/04/21 07:10:31;;;;;;;13.02;2.80;;;;;;;5.96;78.28;101933.88;5445449;26;20002;-57
2024/04/21 07:12:59;;;;;;;15.13;2.72;;;;;;;5.81;79.92;101947.28;5380882;26;19996;-60
2024/04/21 07:15:27;;;;;;;11.90;3.00;;;;;;;5.84;79.68;101933.13;5416713;26;21802;-56
2024/04/21 07:17:55;;;;;;;13.38;2.33;;;;;;;6.15;78.78;101937.09;5447733;26;19999;-60
2024/04/21 07:20:22;;;;;;;12.18;2.53;;;;;;;6.03;79.19;101945.44;5447384;26;20028;-58
2024/04/21 07:22:50;;;;;;;14.52;3.08;;;;;;;6.45;78.59;101937.47;5447625;26;20003;-59
2024/04/21 07:25:17;;;;;;;16.63;2.72;;;;;;;6.30;77.57;101927.19;5447171;26;20003;-59
2024/04/21 07:27:52;;;;;;;14.02;2.70;;;;;;;6.46;76.38;101942.69;5427026;26;20002;-58
2024/04/21 07:30:20;;;;;;;17.20;2.97;;;;;;;6.40;76.24;101940.13;5447645;26;20013;-58
2024/04/21 07:32:47;;;;;;;12.25;2.33;;;;;;;6.30;76.48;101926.34;5414937;26;20591;-58
2024/04/21 07:35:15;;;;;;;13.38;2.63;;;;;;;6.06;77.74;101942.19;5408651;26;20680;-58
2024/04/21 07:37:43;;;;;;;10.50;2.50;;;;;;;6.16;78.17;101927.81;5410354;26;19999;-58
2024/04/21 07:40:13;;;;;;;15.55;2.80;;;;;;;6.33;77.65;101921.19;5379629;26;20442;-59
2024/04/21 07:42:41;;;;;;;12.73;2.45;;;;;;;6.47;77.29;101927.06;5420708;26;20712;-60
2024/04/21 07:45:08;;;;;;;18.52;3.22;;;;;;;6.23;77.26;101922.97;5414543;26;20013;-57
2024/04/21 07:47:36;;;;;;;9.00;2.35;;;;;;;6.54;77.35;101917.59;5446777;26;20456;-58
2024/04/21 07:50:03;;;;;;;14.18;3.40;;;;;;;6.48;77.24;101915.91;5445902;26;20009;-59
2024/04/21 07:52:32;;;;;;;14.70;2.65;;;;;;;6.45;77.26;101935.56;5445450;26;19999;-60
2024/04/21 07:54:59;;;;;;;13.98;2.78;;;;;;;6.54;78.35;101927.69;5446579;26;20009;-58
2024/04/21 07:57:27;;;;;;;9.48;2.33;;;;;;;6.43;77.89;101934.16;5384956;26;19999;-59
2024/04/21 07:59:54;;;;;;;24.30;3.30;;;;;;;6.23;78.83;101932.00;5413243;26;20395;-59
2024/04/21 08:02:21;;;;;;;13.75;2.95;;;;;;;6.48;78.87;101913.16;5445766;26;19998;-59
2024/04/21 08:04:50;;;;;;;15.25;2.83;;;;;;;6.81;77.52;101917.59;5445760;26;20005;-59
2024/04/21 08:07:17;;;;;;;16.15;2.75;;;;;;;6.98;76.11;101934.72;5445611;26;20099;-59
2024/04/21 08:09:45;;;;;;;10.82;2.63;;;;;;;6.81;75.69;101923.91;5444378;26;20136;-57
2024/04/21 08:12:12;;;;;;;16.73;2.90;;;;;;;6.67;75.22;101925.41;5414611;26;19995;-56
2024/04/21 08:14:39;;;;;;;11.77;2.35;;;;;;;6.75;74.39;101919.47;5410501;26;20004;-57
2024/04/21 08:17:07;;;;;;;12.43;2.15;;;;;;;6.91;73.71;101916.84;5446321;26;20009;-59
2024/04/21 08:19:34;;;;;;;11.05;2.35;;;;;;;6.84;73.38;101926.13;5414207;26;20001;-58
2024/04/21 08:22:01;;;;;;;15.07;2.35;;;;;;;7.04;73.01;101914.53;5446141;26;20005;-59
2024/04/21 08:24:29;;;;;;;10.77;2.58;;;;;;;7.19;72.31;101922.03;5445294;26;19995;-59
2024/04/21 08:26:56;;;;;;;11.77;2.83;;;;;;;7.43;70.48;101920.56;5446309;26;20499;-60
2024/04/21 08:29:23;;;;;;;11.00;2.42;;;;;;;7.46;70.21;101917.31;5445904;26;20014;-59
2024/04/21 08:31:51;;;;;;;15.02;3.40;;;;;;;7.55;68.24;101929.47;5429287;26;20005;-58
2024/04/21 08:34:20;;;;;;;9.80;2.90;;;;;;;7.83;66.76;101909.84;5410375;26;20010;-58
2024/04/21 08:36:48;;;;;;;12.25;2.35;;;;;;;7.71;65.45;101922.97;5408056;26;20018;-58
2024/04/21 08:39:16;;;;;;;9.32;1.85;;;;;;;7.66;64.30;101914.69;5406651;26;20010;-58
2024/04/21 08:41:46;;;;;;;8.73;1.95;;;;;;;7.71;64.28;101929.28;5446234;26;20401;-58
2024/04/21 08:44:14;;;;;;;17.90;2.20;;;;;;;7.83;62.13;101926.31;5378757;26;20971;-59
2024/04/21 08:46:42;;;;;;;11.27;1.80;;;;;;;7.65;62.94;101916.59;5409481;26;20014;-58
2024/04/21 08:49:09;;;;;;;11.95;2.17;;;;;;;7.79;62.61;101915.06;5377299;26;20005;-58
2024/04/21 08:51:39;;;;;;;9.52;2.58;;;;;;;8.16;62.13;101911.41;5409715;26;20007;-58
2024/04/21 08:54:06;;;;;;;12.73;1.98;;;;;;;8.27;61.64;101904.88;5410192;26;20006;-61
2024/04/21 08:56:36;;;;;;;10.73;1.77;;;;;;;8.36;61.04;101917.00;5409395;26;19999;-57
2024/04/21 08:59:03;;;;;;;9.43;1.67;;;;;;;8.11;59.33;101939.63;5413906;26;19999;-59
2024/04/21 09:01:31;;;;;;;10.80;1.65;;;;;;;7.88;59.48;101929.91;5384438;26;20022;-60
2024/04/21 09:04:00;;;;;;;7.00;1.63;;;;;;;8.22;58.63;101916.63;5383279;26;20013;-58
2024/04/21 09:06:28;;;;;;;8.75;2.72;;;;;;;7.95;59.08;101902.25;5414329;26;19998;-57
2024/04/21 09:08:56;;;;;;;16.48;2.33;;;;;;;8.29;58.14;101906.28;5384721;26;20003;-57
2024/04/21 09:11:26;;;;;;;8.52;1.75;;;;;;;8.42;57.56;101905.75;5445360;26;19995;-59
2024/04/21 09:13:55;;;;;;;8.90;2.05;;;;;;;8.07;58.27;101897.38;5445625;26;19998;-61
2024/04/21 09:16:26;;;;;;;11.35;1.88;;;;;;;8.24;58.34;101894.44;5411012;26;20002;-61
2024/04/21 09:18:53;;;;;;;13.27;2.20;;;;;;;8.22;59.07;101900.19;5457772;26;20002;-63
2024/04/21 09:21:24;;;;;;;7.57;1.55;;;;;;;8.16;58.09;101903.97;5481247;26;20005;-61
2024/04/21 09:23:51;;;;;;;11.23;1.90;;;;;;;8.40;57.93;101910.72;5481275;26;19995;-61
2024/04/21 09:26:19;;;;;;;9.38;1.40;;;;;;;8.07;56.33;101904.78;5419884;26;19999;-62
2024/04/21 09:28:49;;;;;;;;;;;;;;;8.06;54.10;101900.38;5389258;26;19995;-62
2024/04/21 09:31:17;;;;;;;13.80;1.70;;;;;;;8.32;54.03;101916.72;5421268;26;19930;-61
2024/04/21 09:33:45;;;;;;;9.07;1.63;;;;;;;8.26;53.78;101914.22;5457084;26;20009;-62
2024/04/21 09:36:13;;;;;;;10.18;1.63;;;;;;;8.16;54.06;101908.66;5403525;26;20010;-62
2024/04/21 09:38:41;;;;;;;8.02;1.70;;;;;;;8.10;54.57;101887.78;5439842;26;20549;-65
2024/04/21 09:41:08;;;;;;;13.23;1.85;;;;;;;7.94;55.40;101897.84;5413501;26;20009;-63
2024/04/21 09:43:36;;;;;;;8.15;1.75;;;;;;;8.26;54.85;101878.53;5402070;26;19999;-62
2024/04/21 09:46:03;;;;;;;15.77;2.33;;;;;;;8.57;54.10;101897.56;5377848;26;19996;-62
2024/04/21 09:48:33;;;;;;;10.13;1.95;;;;;;;8.24;54.05;101892.53;5378300;26;20017;-62
2024/04/21 09:51:01;;;;;;;11.65;2.00;;;;;;;8.38;53.83;101890.94;5349152;26;20140;-61
2024/04/21 09:53:29;;;;;;;7.22;1.75;;;;;;;8.71;53.92;101878.63;5349363;26;20000;-61
2024/04/21 09:56:00;;;;;;;7.45;1.77;;;;;;;9.06;53.35;101884.16;5377223;26;20004;-62
2024/04/21 09:58:28;;;;;;;9.95;1.58;;;;;;;8.77;55.31;101897.59;5348462;26;20000;-64
2024/04/21 10:00:56;;;;;;;7.93;2.47;;;;;;;8.20;56.27;101898.78;5378501;26;19995;-62
2024/04/21 10:03:24;;;;;;;11.88;2.28;;;;;;;8.15;56.86;101880.38;5426271;26;19999;-62
2024/04/21 10:05:52;;;;;;;9.88;1.88;;;;;;;8.27;57.25;101883.75;5443901;26;19999;-64
2024/04/21 10:08:21;;;;;;;7.20;2.10;;;;;;;8.52;56.64;101885.75;5405743;26;20004;-62
2024/04/21 10:10:52;;;;;;;9.90;1.80;;;;;;;8.47;54.91;101894.78;5349393;26;20006;-63
2024/04/21 10:13:20;;;;;;;8.80;1.80;;;;;;;8.45;55.38;101894.25;5377838;26;20003;-62
2024/04/21 10:15:48;;;;;;;8.77;1.90;;;;;;;8.52;54.77;101883.84;5377826;26;19995;-62
2024/04/21 10:18:23;;;;;;;10.38;1.85;;;;;;;8.65;54.75;101872.31;5409450;26;20014;-63
2024/04/21 10:20:52;;;;;;;9.98;2.13;;;;;;;8.69;54.00;101872.59;5377764;26;20515;-63
2024/04/21 10:23:20;;;;;;;11.50;1.70;;;;;;;8.59;52.59;101861.59;5349652;26;20017;-61
2024/04/21 10:25:47;;;;;;;11.05;1.75;;;;;;;8.77;52.37;101852.84;5428752;26;20009;-61
2024/04/21 10:28:27;;;;;;;8.32;1.73;;;;;;;9.17;51.72;101838.25;5445117;26;20009;-62
2024/04/21 10:31:05;;;;;;;16.10;2.35;;;;;;;9.25;51.69;101840.44;5426971;26;20003;-60
2024/04/21 10:33:35;;;;;;;8.45;1.90;;;;;;;9.12;52.06;101844.56;5377311;26;20013;-61
2024/04/21 10:36:02;;;;;;;6.90;1.73;;;;;;;9.27;51.42;101843.72;5409014;26;20014;-62
2024/04/21 10:38:30;;;;;;;7.85;1.65;;;;;;;9.10;52.58;101855.84;5408316;26;20018;-62
2024/04/21 10:40:57;;;;;;;11.02;1.65;;;;;;;8.85;53.60;101842.13;5426781;26;20009;-63
2024/04/21 10:43:25;;;;;;;13.20;2.40;;;;;;;9.03;53.60;101829.75;5435104;26;20005;-61
2024/04/21 10:45:58;;;;;;;12.07;1.88;;;;;;;8.91;53.48;101846.50;5444686;26;19995;-62
2024/04/21 10:48:26;;;;;;;7.68;2.03;;;;;;;9.03;54.12;101835.25;5444311;26;20009;-62
2024/04/21 10:50:53;;;;;;;10.57;2.05;;;;;;;9.17;53.73;101839.06;5364298;26;19999;-63
2024/04/21 10:53:21;;;;;;;9.25;2.08;;;;;;;9.17;52.72;101833.56;5409764;26;19999;-65
2024/04/21 10:55:52;;;;;;;10.27;1.70;;;;;;;8.89;53.80;101837.72;5388984;26;20010;-61
2024/04/21 10:58:21;;;;;;;11.35;2.05;;;;;;;9.18;53.29;101826.97;5428843;26;19998;-61
2024/04/21 11:00:49;;;;;;;10.27;2.17;;;;;;;9.33;52.93;101810.44;5428237;26;20003;-62
2024/04/21 11:03:17;;;;;;;11.80;2.42;;;;;;;9.29;53.71;101814.88;5441597;26;20003;-60
2024/04/21 11:05:47;;;;;;;6.00;1.77;;;;;;;9.10;54.78;101794.53;5441307;26;19998;-60
2024/04/21 11:08:14;;;;;;;10.80;2.30;;;;;;;9.17;55.33;101821.75;5405214;26;20007;-61
2024/04/21 11:10:42;;;;;;;6.60;1.83;;;;;;;8.99;56.09;101804.75;5463331;26;19998;-62
2024/04/21 11:13:10;;;;;;;11.07;2.50;;;;;;;8.89;56.54;101793.75;5414846;26;20017;-60
2024/04/21 11:15:43;;;;;;;19.25;6.18;;;;;;;8.99;56.79;101779.19;5376753;26;20003;-60
2024/04/21 11:18:12;;;;;;;12.35;2.15;;;;;;;9.28;55.52;101796.72;5460853;26;19994;-61
2024/04/21 11:20:39;;;;;;;12.75;2.05;;;;;;;9.50;54.08;101810.13;5433447;26;20010;-61
2024/04/21 11:23:09;;;;;;;9.45;2.40;;;;;;;9.42;55.34;101795.03;5389836;26;20565;-62
2024/04/21 11:25:37;;;;;;;9.82;2.28;;;;;;;9.03;56.59;101827.00;5398138;26;19999;-62
2024/04/21 11:28:11;;;;;;;14.90;2.53;;;;;;;8.87;60.06;101819.88;5442406;26;20002;-61
2024/04/21 11:30:39;;;;;;;10.27;2.13;;;;;;;9.01;61.00;101812.72;5420697;26;20357;-61